Date,TemperatureHighF,TemperatureAvgF,TemperatureLowF,DewpointHighF,DewpointAvgF,DewpointLowF,HumidityHigh,HumidityAvg,HumidityLow,PressureMaxIn,PressureMinIn,WindSpeedMaxMPH,WindSpeedAvgMPH,GustSpeedMaxMPH,PrecipitationSumIn
2013-2-1,62.2,49.8,38.0,48.6,43.3,36.8,97,80,59,30.32,30.20,4,1,5,0.00
2013-2-2,65.3,51.2,36.1,50.8,44.2,35.3,98,79,54,30.25,30.14,3,1,5,0.00
2013-2-3,64.2,50.9,42.3,48.0,44.4,40.1,94,80,53,30.30,30.20,3,1,4,0.00
2013-2-4,61.4,50.0,40.0,49.8,44.7,39.2,98,83,58,30.25,30.11,5,1,7,0.01
2013-2-5,65.2,51.8,41.0,49.2,45.1,39.4,95,79,54,30.18,30.05,4,1,5,0.00
2013-2-6,56.3,47.1,40.4,46.2,43.0,39.0,97,86,68,30.15,30.04,6,2,9,0.00
2013-2-7,60.4,46.8,35.9,45.4,40.2,35.4,99,80,46,30.19,30.10,5,2,10,0.01
2013-2-8,56.6,47.2,40.2,46.3,39.9,33.9,90,77,44,30.16,29.97,7,3,10,0.02
2013-2-9,56.6,44.4,34.9,41.8,34.3,29.5,97,70,38,30.01,29.91,11,4,16,0.00
2013-2-10,57.6,44.5,32.4,35.6,31.7,27.6,86,63,36,30.10,29.97,6,2,7,0.00
2013-2-11,60.7,46.6,33.6,39.8,35.5,29.5,88,67,44,30.14,30.00,6,2,11,0.00
2013-2-12,63.0,48.2,34.2,37.1,33.0,26.9,80,58,32,30.26,30.08,3,2,5,0.00
2013-2-13,61.0,48.0,36.4,40.3,37.3,32.5,86,68,44,30.39,30.26,4,1,5,0.00
2013-2-14,64.6,50.1,36.6,42.2,39.3,33.7,90,69,43,30.34,30.21,3,1,6,0.00
2013-2-15,69.6,52.7,38.9,46.7,42.7,36.6,93,71,43,30.26,30.16,4,1,5,0.00
2013-2-16,70.8,55.3,41.2,48.2,43.8,38.2,91,67,42,30.30,30.22,4,1,5,0.00
2013-2-17,70.4,53.7,41.3,45.9,41.9,37.9,89,66,35,30.25,30.01,4,1,6,0.00
2013-2-18,64.6,51.4,40.0,46.2,42.0,36.3,90,72,46,30.04,29.94,5,2,8,0.00
2013-2-19,58.9,48.9,40.4,45.5,41.0,37.4,90,75,59,30.01,29.91,10,5,14,0.00
2013-2-20,45.5,41.2,32.4,43.0,37.7,31.6,97,87,76,29.92,29.74,10,4,11,0.24
2013-2-21,59.6,44.6,29.8,39.5,33.4,29.3,99,69,35,30.04,29.84,10,3,17,0.01
2013-2-22,60.4,47.2,36.8,41.0,35.5,30.7,91,67,33,30.17,30.03,8,3,14,0.00
2013-2-23,64.4,50.5,35.6,42.1,37.6,32.3,90,64,33,30.25,30.13,7,3,9,0.00
2013-2-24,59.1,49.6,41.2,44.1,33.0,25.0,93,57,29,30.24,30.13,11,6,16,0.00
2013-2-25,62.6,50.0,37.5,32.6,29.4,26.3,67,47,27,30.25,30.15,10,5,13,0.00
2013-2-26,62.8,51.0,38.8,38.3,34.8,31.3,79,56,32,30.27,30.16,5,2,8,0.00
2013-2-27,65.1,50.2,35.3,34.6,30.6,23.2,82,51,23,30.21,30.11,11,4,17,0.00
2013-2-28,68.9,54.2,37.3,40.7,35.3,28.3,77,51,23,30.36,30.21,5,2,8,0.00